Time;durP1;ratioP1;P1;durP2;ratioP2;P2;SDS_P1;SDS_P2;PMS_P1;PMS_P2;Temp;Humidity;BMP_temperature;BMP_pressure;BME280_temperature;BME280_humidity;BME280_pressure;Samples;Min_cycle;Max_cycle;Signal;HPM_P1;HPM_P2
2023/08/12 00:02:16;;;;;;;19.13;18.13;;;20.40;99.90;;;;;;6244431;23;20410;-76
2023/08/12 00:04:43;;;;;;;18.33;17.00;;;20.40;99.90;;;;;;6244820;23;20408;-76
2023/08/12 00:07:10;;;;;;;20.10;19.00;;;20.40;99.90;;;;;;6244164;23;20922;-76
2023/08/12 00:09:38;;;;;;;18.97;17.97;;;20.50;99.90;;;;;;6245133;23;20399;-76
2023/08/12 00:12:05;;;;;;;18.27;17.27;;;20.50;99.90;;;;;;6244656;23;20458;-75
2023/08/12 00:14:32;;;;;;;17.57;16.27;;;20.60;99.90;;;;;;6244664;23;20463;-75
2023/08/12 00:17:02;;;;;;;19.27;17.77;;;20.60;99.90;;;;;;6244584;23;20411;-75
2023/08/12 00:19:29;;;;;;;20.57;19.47;;;20.70;99.90;;;;;;6244177;23;20443;-76
2023/08/12 00:21:56;;;;;;;18.37;17.17;;;20.70;99.90;;;;;;6245225;23;20458;-76
2023/08/12 00:24:22;;;;;;;18.50;17.43;;;20.70;99.90;;;;;;6244679;22;20705;-75
2023/08/12 00:26:52;;;;;;;19.13;17.83;;;20.80;99.90;;;;;;6244348;23;20431;-75
2023/08/12 00:29:19;;;;;;;20.07;19.07;;;20.80;99.90;;;;;;6244828;23;20499;-76
2023/08/12 00:31:47;;;;;;;21.13;19.10;;;20.80;99.90;;;;;;6244871;23;20396;-75
2023/08/12 00:34:15;;;;;;;19.83;18.70;;;20.80;99.90;;;;;;6244767;23;20872;-77
2023/08/12 00:36:42;;;;;;;19.53;18.33;;;20.70;99.90;;;;;;6244921;23;20720;-76
2023/08/12 00:39:08;;;;;;;20.90;19.70;;;20.80;99.90;;;;;;6244383;23;20450;-75
2023/08/12 00:41:35;;;;;;;21.13;20.00;;;20.80;99.90;;;;;;6244438;23;20714;-76
2023/08/12 00:44:02;;;;;;;20.33;19.23;;;20.70;99.90;;;;;;6244432;23;20499;-75
2023/08/12 00:46:29;;;;;;;19.00;18.03;;;20.70;99.90;;;;;;6243851;23;20407;-76
2023/08/12 00:48:55;;;;;;;19.57;18.27;;;20.70;99.90;;;;;;6243853;23;20907;-76
2023/08/12 00:51:24;;;;;;;18.87;17.87;;;20.70;99.90;;;;;;6244279;23;20411;-74
2023/08/12 00:53:52;;;;;;;19.60;18.50;;;20.70;99.90;;;;;;6243704;23;20407;-75
2023/08/12 00:56:19;;;;;;;18.33;17.13;;;20.70;99.90;;;;;;6244230;23;20412;-75
2023/08/12 00:58:48;;;;;;;18.00;17.00;;;20.60;99.90;;;;;;6244095;23;20777;-75
2023/08/12 01:01:17;;;;;;;20.00;18.40;;;20.60;99.90;;;;;;6244211;23;20404;-76
2023/08/12 01:03:44;;;;;;;18.53;17.47;;;20.60;99.90;;;;;;6243782;23;20412;-75
2023/08/12 01:06:11;;;;;;;18.67;17.67;;;20.60;99.90;;;;;;6243671;23;20422;-76
2023/08/12 01:08:39;;;;;;;19.67;18.50;;;20.60;99.90;;;;;;6244544;23;20529;-75
2023/08/12 01:11:13;;;;;;;19.70;18.70;;;20.50;99.90;;;;;;6243902;23;20408;-77
2023/08/12 01:13:47;;;;;;;20.07;18.87;;;20.60;99.90;;;;;;6244187;23;20770;-78
2023/08/12 01:16:16;;;;;;;21.40;20.20;;;20.60;99.90;;;;;;6243868;23;20388;-76
2023/08/12 01:18:43;;;;;;;19.23;18.20;;;20.50;99.90;;;;;;6243859;23;20443;-78
2023/08/12 01:21:16;;;;;;;20.50;19.13;;;20.50;99.90;;;;;;6244129;23;20490;-77
2023/08/12 01:23:45;;;;;;;20.17;18.83;;;20.50;99.90;;;;;;6244032;23;20400;-76
2023/08/12 01:26:12;;;;;;;21.17;19.77;;;20.40;99.90;;;;;;6243738;22;20459;-76
2023/08/12 01:28:38;;;;;;;20.10;18.97;;;20.40;99.90;;;;;;6243537;23;20876;-78
2023/08/12 01:31:11;;;;;;;21.27;20.13;;;20.40;99.90;;;;;;6244248;23;20411;-76
2023/08/12 01:33:44;;;;;;;21.20;19.73;;;20.30;99.90;;;;;;6244387;23;20399;-78
2023/08/12 01:36:16;;;;;;;19.03;17.93;;;20.30;99.90;;;;;;6244023;23;20442;-76
2023/08/12 01:38:45;;;;;;;18.27;17.27;;;20.20;99.90;;;;;;6243134;23;21015;-79
2023/08/12 01:41:14;;;;;;;21.33;19.93;;;20.20;99.90;;;;;;6243950;23;20450;-78
2023/08/12 01:43:42;;;;;;;20.57;19.37;;;20.20;99.90;;;;;;6243722;23;20457;-77
2023/08/12 01:46:09;;;;;;;20.87;19.67;;;20.20;99.90;;;;;;6243478;23;20400;-79
2023/08/12 01:48:36;;;;;;;21.87;20.57;;;20.20;99.90;;;;;;6243534;23;20911;-78
2023/08/12 01:51:03;;;;;;;21.63;20.33;;;20.20;99.90;;;;;;6243984;23;20482;-77
2023/08/12 01:53:30;;;;;;;20.43;19.13;;;20.20;99.90;;;;;;6244530;23;20408;-77
2023/08/12 01:55:58;;;;;;;20.13;18.93;;;20.20;99.90;;;;;;6244308;23;20462;-75
2023/08/12 01:58:26;;;;;;;21.57;20.37;;;20.20;99.90;;;;;;6244332;23;20436;-76
2023/08/12 02:00:52;;;;;;;20.43;19.20;;;20.20;99.90;;;;;;6244438;23;20404;-78
2023/08/12 02:03:19;;;;;;;19.10;18.10;;;20.20;99.90;;;;;;6245047;23;20399;-77
2023/08/12 02:05:46;;;;;;;21.53;20.33;;;20.20;99.90;;;;;;6244402;23;20404;-76
2023/08/12 02:08:14;;;;;;;21.13;19.83;;;20.20;99.90;;;;;;6244023;23;20423;-75
2023/08/12 02:10:41;;;;;;;21.77;20.47;;;20.30;99.90;;;;;;6244072;23;20407;-75
2023/08/12 02:13:09;;;;;;;18.80;17.70;;;20.30;99.90;;;;;;6244235;23;20404;-75
2023/08/12 02:15:35;;;;;;;21.50;20.10;;;20.40;99.90;;;;;;6244181;23;20776;-75
2023/08/12 02:18:03;;;;;;;22.83;21.27;;;20.40;99.90;;;;;;6244631;23;20411;-77
2023/08/12 02:20:29;;;;;;;19.80;18.70;;;20.40;99.90;;;;;;6244833;23;20735;-78
2023/08/12 02:22:56;;;;;;;19.80;18.70;;;20.40;99.90;;;;;;6244343;23;20407;-78
2023/08/12 02:25:23;;;;;;;21.30;20.00;;;20.50;99.90;;;;;;6244556;22;20420;-79
2023/08/12 02:27:50;;;;;;;22.50;21.10;;;20.50;99.90;;;;;;6243982;23;20436;-78
2023/08/12 02:30:18;;;;;;;21.30;19.70;;;20.50;99.90;;;;;;6244647;23;20820;-80
2023/08/12 02:32:46;;;;;;;23.33;21.60;;;20.50;99.90;;;;;;6244156;23;20408;-77
2023/08/12 02:35:13;;;;;;;21.80;20.40;;;20.50;99.90;;;;;;6243625;23;20407;-78
2023/08/12 02:37:39;;;;;;;21.57;20.07;;;20.50;99.90;;;;;;6244127;23;20400;-78
2023/08/12 02:40:07;;;;;;;24.10;22.27;;;20.50;99.90;;;;;;6244410;23;20479;-77
2023/08/12 02:42:34;;;;;;;22.93;21.40;;;20.60;99.90;;;;;;6244148;23;20404;-78
2023/08/12 02:45:01;;;;;;;22.93;21.63;;;20.60;99.90;;;;;;6244105;23;20407;-77
2023/08/12 02:47:29;;;;;;;22.33;20.80;;;20.60;99.90;;;;;;6244452;23;20495;-78
2023/08/12 02:49:56;;;;;;;22.17;20.53;;;20.60;99.90;;;;;;6244228;23;20407;-76
2023/08/12 02:52:22;;;;;;;20.80;19.30;;;20.60;99.90;;;;;;6242966;23;20403;-75
2023/08/12 02:54:49;;;;;;;20.53;19.20;;;20.50;99.90;;;;;;6243377;23;20415;-76
2023/08/12 02:57:16;;;;;;;20.73;19.43;;;20.50;99.90;;;;;;6243142;23;20404;-75
2023/08/12 02:59:43;;;;;;;19.90;18.80;;;20.50;99.90;;;;;;6243050;23;20446;-75
2023/08/12 03:02:10;;;;;;;21.90;20.60;;;20.40;99.90;;;;;;6243186;23;20747;-78
2023/08/12 03:04:37;;;;;;;22.20;20.93;;;20.40;99.90;;;;;;6243258;23;20468;-77
2023/08/12 03:07:04;;;;;;;20.83;19.53;;;20.40;99.90;;;;;;6243409;23;20407;-77
2023/08/12 03:09:31;;;;;;;20.73;19.43;;;20.40;99.90;;;;;;6243002;23;20450;-77
2023/08/12 03:12:01;;;;;;;21.60;20.30;;;20.50;99.90;;;;;;6243064;23;20408;-76
2023/08/12 03:14:29;;;;;;;20.70;19.33;;;20.50;99.90;;;;;;6243178;23;20530;-75
2023/08/12 03:16:56;;;;;;;21.60;20.40;;;20.50;99.90;;;;;;6243217;23;20430;-75
2023/08/12 03:19:22;;;;;;;20.03;18.63;;;20.50;99.90;;;;;;6243616;23;20444;-76
2023/08/12 03:21:50;;;;;;;19.60;18.47;;;20.50;99.90;;;;;;6243012;23;20412;-75
2023/08/12 03:24:17;;;;;;;19.77;18.40;;;20.60;99.90;;;;;;6242582;22;20399;-75
2023/08/12 03:26:44;;;;;;;19.90;18.70;;;20.50;99.90;;;;;;6242476;23;20447;-75
2023/08/12 03:29:10;;;;;;;20.00;18.90;;;20.60;99.90;;;;;;6243100;23;20419;-75
2023/08/12 03:31:37;;;;;;;20.43;19.20;;;20.60;99.90;;;;;;6243233;23;20426;-75
2023/08/12 03:34:04;;;;;;;21.00;19.90;;;20.50;99.90;;;;;;6236306;23;20450;-81
2023/08/12 03:36:30;;;;;;;18.53;17.43;;;20.50;99.90;;;;;;6243981;23;20408;-75
2023/08/12 03:38:58;;;;;;;19.90;18.40;;;20.50;99.90;;;;;;6242414;23;20848;-74
2023/08/12 03:41:25;;;;;;;18.60;17.70;;;20.40;99.90;;;;;;6241609;23;20414;-74
2023/08/12 03:43:52;;;;;;;19.23;18.03;;;20.40;99.90;;;;;;6242589;23;20896;-78
2023/08/12 03:46:18;;;;;;;21.10;19.73;;;20.40;99.90;;;;;;6242767;23;20414;-75
2023/08/12 03:48:45;;;;;;;20.87;19.70;;;20.50;99.90;;;;;;6242884;23;20403;-74
2023/08/12 03:51:12;;;;;;;21.70;20.13;;;20.40;99.90;;;;;;6242669;23;20404;-77
2023/08/12 03:53:38;;;;;;;20.90;19.60;;;20.40;99.90;;;;;;6242868;23;20615;-76
2023/08/12 03:56:06;;;;;;;21.10;19.90;;;20.40;99.90;;;;;;6242438;23;20404;-77
2023/08/12 03:58:33;;;;;;;20.93;19.73;;;20.40;99.90;;;;;;6242692;23;20415;-75
2023/08/12 04:01:00;;;;;;;20.77;19.47;;;20.50;99.90;;;;;;6242971;23;20404;-75
2023/08/12 04:03:26;;;;;;;23.57;22.27;;;20.50;99.90;;;;;;6244730;23;20432;-75
2023/08/12 04:05:54;;;;;;;22.47;21.20;;;20.60;99.90;;;;;;6244120;23;20476;-74
2023/08/12 04:08:21;;;;;;;22.20;20.80;;;20.70;99.90;;;;;;6244423;23;20400;-75
2023/08/12 04:10:48;;;;;;;21.57;20.30;;;20.80;99.90;;;;;;6244848;23;20411;-75
2023/08/12 04:13:16;;;;;;;20.87;19.60;;;20.80;99.90;;;;;;6245330;23;20404;-75
2023/08/12 04:15:44;;;;;;;20.87;19.40;;;20.80;99.90;;;;;;6244272;23;20414;-76
2023/08/12 04:18:10;;;;;;;20.53;19.33;;;20.80;99.90;;;;;;6245252;23;20403;-77
2023/08/12 04:20:39;;;;;;;21.20;19.90;;;20.80;99.90;;;;;;6245971;23;20450;-77
2023/08/12 04:23:05;;;;;;;20.13;18.90;;;20.80;99.90;;;;;;6246100;23;20461;-78
2023/08/12 04:25:32;;;;;;;20.10;18.70;;;20.80;99.90;;;;;;6244896;22;20426;-76
2023/08/12 04:27:59;;;;;;;21.07;19.83;;;20.80;99.90;;;;;;6244677;23;20753;-76
2023/08/12 04:30:27;;;;;;;22.37;21.07;;;20.80;99.90;;;;;;6245584;23;20408;-77
2023/08/12 04:32:54;;;;;;;20.10;19.00;;;20.90;99.90;;;;;;6244931;23;20466;-76
2023/08/12 04:35:20;;;;;;;19.27;18.20;;;20.90;99.90;;;;;;6245554;23;20411;-76
2023/08/12 04:37:47;;;;;;;20.10;18.50;;;20.90;99.90;;;;;;6244315;23;20923;-75
2023/08/12 04:40:14;;;;;;;20.67;19.57;;;21.00;99.90;;;;;;6244685;23;20443;-77
2023/08/12 04:42:40;;;;;;;20.83;19.73;;;21.00;99.90;;;;;;6245190;23;20404;-76
2023/08/12 04:45:08;;;;;;;18.73;17.73;;;21.20;99.90;;;;;;6244734;23;20916;-78
2023/08/12 04:47:36;;;;;;;19.40;18.30;;;21.30;99.90;;;;;;6244616;23;20888;-77
2023/08/12 04:50:04;;;;;;;20.20;19.10;;;21.30;99.90;;;;;;6244588;23;20704;-76
2023/08/12 04:52:30;;;;;;;19.60;18.23;;;21.20;99.90;;;;;;6244323;23;20408;-76
2023/08/12 04:54:57;;;;;;;20.60;19.50;;;21.10;99.90;;;;;;6237129;23;20415;-77
2023/08/12 04:57:24;;;;;;;18.20;17.07;;;21.10;99.90;;;;;;6244841;23;20407;-75
2023/08/12 04:59:51;;;;;;;19.63;18.53;;;21.10;99.90;;;;;;6245541;23;20534;-75
2023/08/12 05:02:20;;;;;;;21.57;20.40;;;21.10;99.90;;;;;;6246089;23;20415;-80
2023/08/12 05:04:49;;;;;;;20.43;19.30;;;21.20;99.90;;;;;;6245456;23;20414;-79
2023/08/12 05:07:16;;;;;;;20.80;19.60;;;21.20;99.90;;;;;;6246630;23;20408;-87
2023/08/12 05:09:43;;;;;;;19.90;18.90;;;21.20;99.90;;;;;;6248206;23;20403;-78
2023/08/12 05:12:10;;;;;;;20.50;19.37;;;21.30;99.90;;;;;;6243638;23;20486;-74
2023/08/12 05:14:37;;;;;;;20.60;19.30;;;21.30;99.90;;;;;;6240397;23;20929;-74
2023/08/12 05:17:04;;;;;;;20.87;19.47;;;21.30;99.90;;;;;;6242060;23;20416;-73
2023/08/12 05:19:31;;;;;;;19.60;18.50;;;21.40;99.90;;;;;;6243671;23;20768;-73
2023/08/12 05:21:59;;;;;;;19.07;18.07;;;21.40;99.90;;;;;;6244003;23;20408;-73
2023/08/12 05:24:25;;;;;;;19.77;18.77;;;21.40;99.90;;;;;;6243934;22;20408;-73
2023/08/12 05:26:52;;;;;;;21.73;20.43;;;21.40;99.90;;;;;;6243658;23;20756;-73
2023/08/12 05:29:19;;;;;;;21.47;20.37;;;21.40;99.90;;;;;;6243901;23;20411;-73
2023/08/12 05:31:46;;;;;;;19.10;18.10;;;21.30;99.90;;;;;;6243554;23;20404;-74
2023/08/12 05:34:12;;;;;;;20.73;19.13;;;21.30;99.90;;;;;;6244094;23;20404;-74
2023/08/12 05:36:39;;;;;;;18.40;17.50;;;21.30;99.90;;;;;;6244213;23;20404;-73
2023/08/12 05:39:07;;;;;;;21.00;19.70;;;21.30;99.90;;;;;;6243932;23;20400;-73
2023/08/12 05:41:34;;;;;;;20.87;19.40;;;21.40;99.90;;;;;;6243329;23;20404;-74
2023/08/12 05:44:00;;;;;;;20.07;18.83;;;21.50;99.90;;;;;;6243718;23;20411;-74
2023/08/12 05:46:27;;;;;;;21.50;20.40;;;21.60;99.90;;;;;;6243814;23;20415;-74
2023/08/12 05:48:54;;;;;;;26.03;24.73;;;21.60;99.90;;;;;;6244020;23;20403;-73
2023/08/12 05:51:21;;;;;;;26.33;24.70;;;21.40;99.90;;;;;;6243623;23;20408;-73
2023/08/12 05:53:48;;;;;;;26.23;24.83;;;21.20;99.90;;;;;;6244107;23;20404;-74
2023/08/12 05:56:16;;;;;;;24.40;23.20;;;21.00;99.90;;;;;;6243978;23;20411;-74
2023/08/12 05:58:43;;;;;;;23.00;21.80;;;20.90;99.90;;;;;;6243933;23;20408;-74
2023/08/12 06:01:10;;;;;;;21.77;20.57;;;20.80;99.90;;;;;;6243734;23;20435;-74
2023/08/12 06:03:37;;;;;;;22.40;21.10;;;20.90;99.90;;;;;;6243546;23;20726;-73
2023/08/12 06:06:04;;;;;;;20.13;19.00;;;21.00;99.90;;;;;;6243180;23;20400;-73
2023/08/12 06:08:30;;;;;;;20.00;18.87;;;21.20;99.90;;;;;;6243180;23;20408;-73
2023/08/12 06:10:58;;;;;;;20.70;19.30;;;21.40;99.90;;;;;;6243444;23;20400;-74
2023/08/12 06:13:26;;;;;;;21.37;19.97;;;21.60;99.90;;;;;;6243491;23;20431;-73
2023/08/12 06:15:52;;;;;;;19.17;17.80;;;21.70;99.90;;;;;;6243722;23;20411;-73
2023/08/12 06:18:19;;;;;;;20.63;19.43;;;21.80;99.90;;;;;;6236920;23;20427;-73
2023/08/12 06:20:46;;;;;;;21.47;20.17;;;21.80;99.90;;;;;;6243462;23;20439;-73
2023/08/12 06:23:13;;;;;;;20.37;18.97;;;21.80;99.90;;;;;;6242015;23;20416;-73
2023/08/12 06:25:40;;;;;;;22.57;20.80;;;21.90;99.90;;;;;;6242708;22;20923;-73
2023/08/12 06:28:08;;;;;;;22.47;20.83;;;22.10;99.90;;;;;;6243125;23;20432;-73
2023/08/12 06:30:36;;;;;;;23.57;22.00;;;22.30;99.90;;;;;;6243614;23;20404;-73
2023/08/12 06:33:03;;;;;;;22.27;20.87;;;22.30;99.90;;;;;;6243596;23;20403;-73
2023/08/12 06:35:30;;;;;;;20.47;19.17;;;22.20;99.90;;;;;;6243472;23;20406;-73
2023/08/12 06:37:56;;;;;;;19.50;18.40;;;22.20;99.90;;;;;;6243384;23;20408;-73
2023/08/12 06:40:23;;;;;;;21.00;19.57;;;22.20;99.90;;;;;;6243030;23;20975;-73
2023/08/12 06:42:50;;;;;;;20.20;19.10;;;22.20;99.90;;;;;;6243413;23;20736;-74
2023/08/12 06:45:16;;;;;;;21.80;20.50;;;22.20;99.90;;;;;;6243486;23;20411;-74
2023/08/12 06:47:44;;;;;;;20.93;19.50;;;22.30;99.90;;;;;;6242794;23;20416;-73
2023/08/12 06:50:11;;;;;;;19.23;18.00;;;22.40;99.90;;;;;;6243489;23;20406;-73
2023/08/12 06:52:38;;;;;;;19.60;18.53;;;22.60;99.90;;;;;;6242946;23;20926;-74
2023/08/12 06:55:05;;;;;;;20.13;18.93;;;23.00;99.90;;;;;;6243208;23;20422;-73
2023/08/12 06:57:32;;;;;;;18.07;17.17;;;23.30;99.90;;;;;;6242842;23;20914;-74
2023/08/12 06:59:58;;;;;;;18.03;17.03;;;23.80;99.90;;;;;;6243092;23;20440;-73
2023/08/12 07:02:25;;;;;;;18.23;17.33;;;24.60;99.90;;;;;;6243080;23;20411;-73
2023/08/12 07:04:53;;;;;;;19.33;18.30;;;25.30;99.90;;;;;;6243272;23;20404;-74
2023/08/12 07:07:20;;;;;;;16.40;15.40;;;26.00;99.90;;;;;;6242800;23;20403;-73
2023/08/12 07:09:47;;;;;;;31.07;17.33;;;26.50;99.90;;;;;;6242746;23;20406;-72
2023/08/12 07:12:13;;;;;;;17.37;16.57;;;26.90;99.90;;;;;;6242818;23;21113;-73
2023/08/12 07:14:40;;;;;;;17.83;16.63;;;26.50;99.90;;;;;;6242543;23;20404;-74
2023/08/12 07:17:07;;;;;;;17.60;16.50;;;26.70;99.90;;;;;;6236341;23;20424;-73
2023/08/12 07:19:33;;;;;;;16.70;15.90;;;27.30;99.90;;;;;;6242984;23;20400;-72
2023/08/12 07:22:01;;;;;;;16.87;15.80;;;28.10;99.90;;;;;;6243246;23;20404;-73
2023/08/12 07:24:28;;;;;;;19.83;18.60;;;29.00;99.90;;;;;;6242658;22;20888;-73
2023/08/12 07:26:55;;;;;;;16.53;15.73;;;29.50;98.70;;;;;;6242784;23;20432;-73
2023/08/12 07:29:22;;;;;;;17.00;16.10;;;30.20;97.30;;;;;;6242982;23;20404;-73
2023/08/12 07:31:49;;;;;;;15.87;15.10;;;29.90;96.70;;;;;;6243119;23;20411;-73
2023/08/12 07:34:16;;;;;;;25.77;18.50;;;29.90;97.30;;;;;;6243207;23;20522;-73
2023/08/12 07:36:42;;;;;;;18.40;17.47;;;30.40;95.90;;;;;;6242915;23;20907;-73
2023/08/12 07:39:10;;;;;;;16.80;16.00;;;31.00;95.00;;;;;;6245091;23;20408;-74
2023/08/12 07:41:37;;;;;;;16.90;16.10;;;31.80;93.40;;;;;;6244430;23;20447;-74
2023/08/12 07:44:04;;;;;;;18.47;17.53;;;32.10;92.20;;;;;;6245123;23;20404;-73
2023/08/12 07:46:31;;;;;;;18.63;17.30;;;32.00;92.10;;;;;;6245146;23;20400;-74
2023/08/12 07:48:58;;;;;;;17.60;16.70;;;32.30;91.70;;;;;;6244615;23;20742;-74
2023/08/12 07:51:25;;;;;;;18.70;17.50;;;32.30;91.50;;;;;;6244591;23;20486;-74
2023/08/12 07:53:51;;;;;;;17.40;16.60;;;32.60;91.20;;;;;;6244991;23;20422;-73
2023/08/12 07:56:19;;;;;;;17.23;16.40;;;33.10;90.90;;;;;;6244505;23;20411;-74
2023/08/12 07:58:47;;;;;;;18.97;18.03;;;33.40;89.60;;;;;;6244419;23;20404;-74
2023/08/12 08:01:14;;;;;;;16.77;15.87;;;33.60;87.60;;;;;;6244929;23;20440;-74
2023/08/12 08:03:40;;;;;;;17.07;16.37;;;34.20;86.40;;;;;;6244597;23;20407;-73
2023/08/12 08:06:08;;;;;;;19.70;18.40;;;35.00;83.50;;;;;;6244697;23;20403;-73
2023/08/12 08:08:34;;;;;;;18.03;17.03;;;35.70;79.20;;;;;;6244693;23;20490;-74
2023/08/12 08:11:01;;;;;;;17.53;16.53;;;36.20;76.80;;;;;;6244888;23;20399;-75
2023/08/12 08:13:29;;;;;;;18.03;17.13;;;36.80;75.20;;;;;;6244809;23;20410;-75
2023/08/12 08:15:56;;;;;;;19.37;18.27;;;37.00;72.90;;;;;;6244733;23;20400;-74
2023/08/12 08:18:23;;;;;;;18.00;17.20;;;37.50;72.70;;;;;;6244622;23;20740;-74
2023/08/12 08:20:49;;;;;;;19.07;18.00;;;36.20;74.10;;;;;;6244437;23;20622;-74
2023/08/12 08:23:16;;;;;;;18.93;17.77;;;36.00;74.20;;;;;;6244190;23;20403;-73
2023/08/12 08:25:43;;;;;;;18.13;17.33;;;36.30;73.60;;;;;;6237351;22;20431;-74
2023/08/12 08:28:10;;;;;;;18.67;17.53;;;36.40;73.60;;;;;;6243810;23;20454;-74
2023/08/12 08:30:38;;;;;;;19.50;18.50;;;37.20;71.20;;;;;;6244228;23;20404;-74
2023/08/12 08:33:05;;;;;;;18.97;17.87;;;36.50;71.80;;;;;;6244154;23;20400;-73
2023/08/12 08:35:31;;;;;;;19.40;18.50;;;35.70;74.10;;;;;;6244787;23;20408;-74
2023/08/12 08:37:58;;;;;;;19.70;18.60;;;34.90;76.40;;;;;;6244069;23;20412;-74
2023/08/12 08:40:26;;;;;;;18.77;17.53;;;34.80;76.70;;;;;;6244144;23;20951;-74
2023/08/12 08:42:53;;;;;;;16.87;16.13;;;34.80;77.90;;;;;;6244497;23;20408;-74
2023/08/12 08:45:22;;;;;;;17.83;16.90;;;35.40;77.00;;;;;;6244489;23;20458;-74
2023/08/12 08:47:54;;;;;;;20.30;18.60;;;36.30;74.00;;;;;;6244100;23;20938;-74
2023/08/12 08:50:22;;;;;;;19.53;18.50;;;37.20;71.40;;;;;;6244733;23;20388;-74
2023/08/12 08:52:49;;;;;;;19.23;18.43;;;38.00;69.50;;;;;;6244727;23;20419;-74
2023/08/12 08:55:17;;;;;;;18.63;17.63;;;38.20;66.90;;;;;;6244415;23;20430;-74
2023/08/12 08:57:44;;;;;;;19.27;18.47;;;38.20;66.80;;;;;;6244645;23;20408;-74
2023/08/12 09:00:13;;;;;;;17.80;17.10;;;38.80;65.40;;;;;;6244479;23;20767;-74
2023/08/12 09:02:41;;;;;;;19.67;18.83;;;38.40;63.50;;;;;;6243991;23;20991;-75
2023/08/12 09:05:11;;;;;;;18.47;17.67;;;38.40;64.90;;;;;;6243920;23;20934;-74
2023/08/12 09:07:38;;;;;;;17.60;16.90;;;37.50;66.40;;;;;;6244130;23;20411;-74
2023/08/12 09:10:06;;;;;;;18.40;17.60;;;36.90;68.50;;;;;;6241368;23;20411;-74
2023/08/12 09:12:33;;;;;;;17.97;16.97;;;36.60;68.40;;;;;;6243744;23;20399;-73
2023/08/12 09:14:59;;;;;;;18.60;17.73;;;36.80;68.80;;;;;;6244324;23;20627;-73
2023/08/12 09:17:27;;;;;;;16.90;16.20;;;36.70;68.00;;;;;;6243795;23;20404;-75
2023/08/12 09:19:53;;;;;;;16.33;15.63;;;36.50;68.00;;;;;;6243468;23;20990;-75
2023/08/12 09:22:25;;;;;;;17.60;16.90;;;35.20;70.50;;;;;;6243564;23;20986;-75
2023/08/12 09:24:56;;;;;;;17.17;16.47;;;35.00;71.90;;;;;;6243759;22;20507;-75
2023/08/12 09:27:22;;;;;;;18.83;17.83;;;34.50;72.90;;;;;;6243419;23;20447;-74
2023/08/12 09:29:49;;;;;;;17.80;16.90;;;34.40;74.10;;;;;;6243438;23;20407;-75
2023/08/12 09:32:20;;;;;;;16.37;15.57;;;34.40;73.70;;;;;;6243718;23;20176;-75
2023/08/12 09:34:51;;;;;;;16.90;16.10;;;34.20;74.90;;;;;;6243468;23;20856;-75
2023/08/12 09:37:18;;;;;;;15.60;15.00;;;34.00;75.70;;;;;;6243580;23;20415;-75
2023/08/12 09:39:47;;;;;;;17.20;16.40;;;34.60;74.90;;;;;;6243245;23;20450;-75
2023/08/12 09:42:14;;;;;;;18.50;17.30;;;34.90;73.70;;;;;;6243743;23;20450;-75
2023/08/12 09:44:42;;;;;;;15.97;15.33;;;34.90;73.10;;;;;;6243210;23;20414;-76
2023/08/12 09:47:10;;;;;;;18.90;17.90;;;34.90;73.10;;;;;;6243622;23;20742;-76
2023/08/12 09:49:37;;;;;;;16.37;15.47;;;35.00;71.70;;;;;;6243546;23;20408;-75
2023/08/12 09:52:05;;;;;;;18.30;17.37;;;34.40;74.20;;;;;;6243567;23;20400;-74
2023/08/12 09:54:33;;;;;;;17.00;16.20;;;34.30;74.30;;;;;;6243506;23;20406;-75
2023/08/12 09:57:03;;;;;;;16.23;15.43;;;34.60;73.50;;;;;;6243457;23;20414;-75
2023/08/12 09:59:34;;;;;;;15.63;14.93;;;35.20;72.80;;;;;;6243469;23;20404;-75
2023/08/12 10:02:03;;;;;;;17.20;16.27;;;35.10;70.50;;;;;;6243253;23;20471;-76
2023/08/12 10:04:39;;;;;;;15.37;14.77;;;34.70;71.40;;;;;;6243417;23;20410;-74
2023/08/12 10:07:07;;;;;;;15.10;14.50;;;34.00;71.90;;;;;;6243553;23;20479;-73
2023/08/12 10:09:35;;;;;;;14.87;14.27;;;34.20;72.00;;;;;;6243340;23;20808;-74
2023/08/12 10:12:04;;;;;;;16.70;15.90;;;34.50;69.00;;;;;;6243229;23;20407;-74
2023/08/12 10:14:32;;;;;;;15.50;14.90;;;34.10;70.60;;;;;;6243357;23;20411;-74
2023/08/12 10:16:59;;;;;;;16.07;15.47;;;33.20;74.50;;;;;;6243180;23;20400;-74
2023/08/12 10:19:27;;;;;;;14.93;14.33;;;32.70;75.50;;;;;;6243550;23;20408;-74
2023/08/12 10:21:57;;;;;;;14.10;13.60;;;32.70;75.50;;;;;;6243220;23;20503;-74
2023/08/12 10:24:24;;;;;;;15.03;14.43;;;32.70;75.20;;;;;;6242909;22;20439;-74
2023/08/12 10:26:52;;;;;;;15.30;14.70;;;32.80;76.10;;;;;;6243125;23;20439;-73
2023/08/12 10:29:20;;;;;;;15.93;14.87;;;33.10;75.90;;;;;;6243086;23;20499;-74
2023/08/12 10:31:48;;;;;;;14.10;13.60;;;33.60;73.80;;;;;;6238659;23;20431;-74
2023/08/12 10:34:22;;;;;;;15.30;14.70;;;34.10;73.50;;;;;;6243200;23;20411;-74
2023/08/12 10:36:48;;;;;;;14.57;13.97;;;34.70;71.10;;;;;;6242802;23;20925;-73
2023/08/12 10:39:15;;;;;;;17.13;16.53;;;34.90;71.20;;;;;;6243352;23;20404;-74
2023/08/12 10:41:52;;;;;;;16.57;15.60;;;35.50;68.70;;;;;;6243371;23;20474;-74
2023/08/12 10:44:22;;;;;;;15.17;14.47;;;36.00;66.80;;;;;;6242916;23;20910;-74
2023/08/12 10:46:52;;;;;;;17.13;16.43;;;36.30;67.50;;;;;;6245628;23;20385;-74
2023/08/12 10:49:21;;;;;;;15.90;15.20;;;36.30;67.00;;;;;;6243043;23;20399;-74
2023/08/12 10:51:49;;;;;;;17.27;16.33;;;36.90;65.20;;;;;;6243287;23;20570;-75
2023/08/12 10:54:22;;;;;;;15.63;14.97;;;37.20;64.70;;;;;;6243319;23;20697;-75
2023/08/12 10:57:14;;;;;;;15.77;15.00;;;36.40;65.70;;;;;;6243189;23;20404;-75
2023/08/12 10:59:55;;;;;;;17.30;16.70;;;36.30;65.40;;;;;;6243270;23;20468;-74
2023/08/12 11:02:27;;;;;;;17.10;16.40;;;35.60;67.90;;;;;;6242743;23;20530;-76
2023/08/12 11:04:55;;;;;;;16.13;15.50;;;35.50;68.50;;;;;;6243334;23;20388;-75
2023/08/12 11:07:23;;;;;;;16.40;15.70;;;35.20;67.70;;;;;;6243153;23;20407;-75
2023/08/12 11:09:53;;;;;;;15.53;14.90;;;35.10;69.30;;;;;;6243208;23;20411;-75
2023/08/12 11:12:30;;;;;;;15.00;14.40;;;36.20;66.70;;;;;;6242793;23;20396;-74
2023/08/12 11:15:01;;;;;;;16.67;15.77;;;37.30;63.90;;;;;;6243624;23;20712;-75
2023/08/12 11:17:35;;;;;;;14.87;14.37;;;37.50;62.00;;;;;;6243038;23;20385;-75
2023/08/12 11:20:05;;;;;;;15.90;15.10;;;37.10;62.50;;;;;;6242799;23;20427;-75
2023/08/12 11:22:32;;;;;;;17.07;16.37;;;36.40;63.20;;;;;;6242414;23;20439;-74
2023/08/12 11:24:58;;;;;;;16.40;15.57;;;35.60;66.00;;;;;;6242105;22;20436;-75
2023/08/12 11:27:28;;;;;;;16.67;16.07;;;36.00;66.30;;;;;;6242286;23;20951;-76
2023/08/12 11:29:55;;;;;;;16.63;15.93;;;37.20;64.00;;;;;;6242761;23;20443;-75
2023/08/12 11:32:24;;;;;;;18.00;17.30;;;39.00;60.10;;;;;;6242947;23;20399;-75
2023/08/12 11:34:51;;;;;;;18.20;17.50;;;40.50;57.60;;;;;;6242477;23;20883;-74
2023/08/12 11:37:18;;;;;;;18.40;17.70;;;41.80;54.70;;;;;;6243189;23;20737;-75
2023/08/12 11:39:45;;;;;;;17.47;16.57;;;40.70;54.50;;;;;;6243144;23;20442;-75
2023/08/12 11:42:11;;;;;;;17.47;16.77;;;40.00;55.40;;;;;;6242822;23;20439;-75
2023/08/12 11:44:40;;;;;;;18.27;17.57;;;39.70;55.60;;;;;;6242789;23;20400;-75
2023/08/12 11:47:07;;;;;;;17.57;16.50;;;39.60;55.60;;;;;;6242453;23;20903;-74
2023/08/12 11:49:35;;;;;;;17.83;16.83;;;38.50;58.30;;;;;;6242674;23;20399;-76
2023/08/12 11:52:03;;;;;;;16.97;15.97;;;38.40;57.70;;;;;;6242268;23;20714;-75
2023/08/12 11:54:30;;;;;;;17.60;16.80;;;39.10;56.80;;;;;;6242706;23;20446;-75
2023/08/12 11:56:59;;;;;;;17.03;16.43;;;39.40;56.80;;;;;;6242765;23;20785;-74
2023/08/12 11:59:26;;;;;;;17.27;16.47;;;39.80;56.20;;;;;;6242562;23;20407;-75
2023/08/12 12:01:56;;;;;;;18.43;17.33;;;40.30;56.10;;;;;;6242560;23;20439;-74
2023/08/12 12:04:25;;;;;;;18.53;17.63;;;40.30;56.50;;;;;;6242511;23;20855;-74
2023/08/12 12:06:53;;;;;;;17.60;16.70;;;40.10;56.20;;;;;;6242512;23;20496;-73
2023/08/12 12:09:21;;;;;;;15.80;15.20;;;38.50;58.10;;;;;;6242476;23;20413;-76
2023/08/12 12:11:52;;;;;;;17.30;16.40;;;37.00;59.50;;;;;;6242786;23;20404;-75
2023/08/12 12:14:19;;;;;;;16.63;15.83;;;35.80;62.10;;;;;;6242855;23;20395;-74
2023/08/12 12:16:47;;;;;;;15.80;14.80;;;34.20;71.10;;;;;;6242535;23;20502;-76
2023/08/12 12:19:17;;;;;;;14.27;13.77;;;32.30;81.80;;;;;;6242726;23;20820;-75
2023/08/12 12:21:46;;;;;;;14.30;13.60;;;31.00;90.80;;;;;;6242622;23;20448;-74
2023/08/12 12:24:15;;;;;;;15.07;14.20;;;29.60;96.20;;;;;;6243971;22;20499;-76
2023/08/12 12:26:42;;;;;;;17.67;16.73;;;29.00;99.90;;;;;;6244866;23;20435;-78
2023/08/12 12:29:11;;;;;;;37.03;34.93;;;28.50;99.90;;;;;;6245199;23;20404;-76
2023/08/12 12:31:39;;;;;;;35.83;33.27;;;27.90;99.90;;;;;;6244756;23;20432;-75